sensor_id;sensor_type;location;lat;lon;timestamp;P1;durP1;ratioP1;P2;durP2;ratioP2
37087;SDS011;23002;52.676;6.432;2023-05-07T00:02:25;27.70;;;13.90;;
37087;SDS011;23002;52.676;6.432;2023-05-07T00:04:52;22.10;;;12.63;;
37087;SDS011;23002;52.676;6.432;2023-05-07T00:07:19;24.85;;;12.68;;
37087;SDS011;23002;52.676;6.432;2023-05-07T00:09:46;23.48;;;12.30;;
37087;SDS011;23002;52.676;6.432;2023-05-07T00:12:13;23.67;;;13.75;;
37087;SDS011;23002;52.676;6.432;2023-05-07T00:14:41;25.45;;;13.32;;
37087;SDS011;23002;52.676;6.432;2023-05-07T00:17:08;21.73;;;12.52;;
37087;SDS011;23002;52.676;6.432;2023-05-07T00:19:35;23.38;;;12.50;;
37087;SDS011;23002;52.676;6.432;2023-05-07T00:22:02;24.02;;;12.65;;
37087;SDS011;23002;52.676;6.432;2023-05-07T00:24:29;24.38;;;12.55;;
37087;SDS011;23002;52.676;6.432;2023-05-07T00:26:56;22.85;;;13.68;;
37087;SDS011;23002;52.676;6.432;2023-05-07T00:29:24;31.63;;;13.77;;
37087;SDS011;23002;52.676;6.432;2023-05-07T00:31:51;23.42;;;12.20;;
37087;SDS011;23002;52.676;6.432;2023-05-07T00:34:20;20.98;;;12.20;;
37087;SDS011;23002;52.676;6.432;2023-05-07T00:36:48;22.80;;;12.70;;
37087;SDS011;23002;52.676;6.432;2023-05-07T00:39:15;25.23;;;13.68;;
37087;SDS011;23002;52.676;6.432;2023-05-07T00:41:42;25.77;;;13.65;;
37087;SDS011;23002;52.676;6.432;2023-05-07T00:44:09;29.17;;;13.88;;
37087;SDS011;23002;52.676;6.432;2023-05-07T00:46:37;22.08;;;12.35;;
37087;SDS011;23002;52.676;6.432;2023-05-07T00:49:04;27.15;;;13.40;;
37087;SDS011;23002;52.676;6.432;2023-05-07T00:51:32;26.63;;;13.10;;
37087;SDS011;23002;52.676;6.432;2023-05-07T00:54:00;24.67;;;12.48;;
37087;SDS011;23002;52.676;6.432;2023-05-07T00:56:27;23.90;;;13.10;;
37087;SDS011;23002;52.676;6.432;2023-05-07T00:58:54;23.55;;;12.65;;
37087;SDS011;23002;52.676;6.432;2023-05-07T01:01:22;25.00;;;13.23;;
37087;SDS011;23002;52.676;6.432;2023-05-07T01:03:49;21.92;;;11.70;;
37087;SDS011;23002;52.676;6.432;2023-05-07T01:06:17;23.25;;;12.52;;
37087;SDS011;23002;52.676;6.432;2023-05-07T01:08:45;22.38;;;12.57;;
37087;SDS011;23002;52.676;6.432;2023-05-07T01:11:12;21.63;;;11.50;;
37087;SDS011;23002;52.676;6.432;2023-05-07T01:13:40;23.75;;;11.38;;
37087;SDS011;23002;52.676;6.432;2023-05-07T01:16:08;22.27;;;11.30;;
37087;SDS011;23002;52.676;6.432;2023-05-07T01:18:35;22.80;;;11.55;;
37087;SDS011;23002;52.676;6.432;2023-05-07T01:21:03;24.85;;;12.07;;
37087;SDS011;23002;52.676;6.432;2023-05-07T01:23:31;16.83;;;9.93;;
37087;SDS011;23002;52.676;6.432;2023-05-07T01:25:59;23.50;;;11.07;;
37087;SDS011;23002;52.676;6.432;2023-05-07T01:28:26;22.50;;;10.05;;
37087;SDS011;23002;52.676;6.432;2023-05-07T01:30:54;17.30;;;9.30;;
37087;SDS011;23002;52.676;6.432;2023-05-07T01:33:22;18.80;;;8.85;;
37087;SDS011;23002;52.676;6.432;2023-05-07T01:35:51;20.35;;;9.98;;
37087;SDS011;23002;52.676;6.432;2023-05-07T01:38:20;16.75;;;9.73;;
37087;SDS011;23002;52.676;6.432;2023-05-07T01:40:48;21.30;;;9.07;;
37087;SDS011;23002;52.676;6.432;2023-05-07T01:43:15;16.02;;;9.80;;
37087;SDS011;23002;52.676;6.432;2023-05-07T01:45:42;16.98;;;9.10;;
37087;SDS011;23002;52.676;6.432;2023-05-07T01:48:10;18.40;;;9.38;;
37087;SDS011;23002;52.676;6.432;2023-05-07T01:50:38;17.90;;;9.52;;
37087;SDS011;23002;52.676;6.432;2023-05-07T01:53:06;17.58;;;9.68;;
37087;SDS011;23002;52.676;6.432;2023-05-07T01:55:33;19.13;;;10.50;;
37087;SDS011;23002;52.676;6.432;2023-05-07T01:58:00;17.65;;;10.27;;
37087;SDS011;23002;52.676;6.432;2023-05-07T02:00:27;21.73;;;10.32;;
37087;SDS011;23002;52.676;6.432;2023-05-07T02:02:55;18.45;;;10.20;;
37087;SDS011;23002;52.676;6.432;2023-05-07T02:05:22;17.15;;;10.73;;
37087;SDS011;23002;52.676;6.432;2023-05-07T02:07:50;19.30;;;10.75;;
37087;SDS011;23002;52.676;6.432;2023-05-07T02:10:17;20.67;;;10.50;;
37087;SDS011;23002;52.676;6.432;2023-05-07T02:12:46;21.55;;;10.55;;
37087;SDS011;23002;52.676;6.432;2023-05-07T02:15:13;21.90;;;11.80;;
37087;SDS011;23002;52.676;6.432;2023-05-07T02:17:57;20.38;;;10.75;;
37087;SDS011;23002;52.676;6.432;2023-05-07T02:20:25;23.17;;;11.73;;
37087;SDS011;23002;52.676;6.432;2023-05-07T02:22:52;21.15;;;11.15;;
37087;SDS011;23002;52.676;6.432;2023-05-07T02:25:19;28.45;;;12.57;;
37087;SDS011;23002;52.676;6.432;2023-05-07T02:27:46;19.35;;;10.65;;
37087;SDS011;23002;52.676;6.432;2023-05-07T02:30:13;19.20;;;11.30;;
37087;SDS011;23002;52.676;6.432;2023-05-07T02:32:41;19.23;;;11.25;;
37087;SDS011;23002;52.676;6.432;2023-05-07T02:35:08;20.45;;;11.27;;
37087;SDS011;23002;52.676;6.432;2023-05-07T02:37:35;19.55;;;11.13;;
37087;SDS011;23002;52.676;6.432;2023-05-07T02:40:02;24.55;;;12.13;;
37087;SDS011;23002;52.676;6.432;2023-05-07T02:42:30;24.13;;;12.15;;
37087;SDS011;23002;52.676;6.432;2023-05-07T02:44:57;23.38;;;12.52;;
37087;SDS011;23002;52.676;6.432;2023-05-07T02:47:24;22.40;;;11.88;;
37087;SDS011;23002;52.676;6.432;2023-05-07T02:49:54;23.88;;;12.18;;
37087;SDS011;23002;52.676;6.432;2023-05-07T02:52:21;19.13;;;10.93;;
37087;SDS011;23002;52.676;6.432;2023-05-07T02:54:48;24.23;;;11.23;;
37087;SDS011;23002;52.676;6.432;2023-05-07T02:57:15;23.55;;;12.30;;
37087;SDS011;23002;52.676;6.432;2023-05-07T02:59:43;20.80;;;12.27;;
37087;SDS011;23002;52.676;6.432;2023-05-07T03:02:10;24.10;;;11.82;;
37087;SDS011;23002;52.676;6.432;2023-05-07T03:04:38;24.15;;;12.40;;
37087;SDS011;23002;52.676;6.432;2023-05-07T03:07:05;24.90;;;12.48;;
37087;SDS011;23002;52.676;6.432;2023-05-07T03:09:32;21.98;;;12.25;;
37087;SDS011;23002;52.676;6.432;2023-05-07T03:11:59;25.05;;;12.65;;
37087;SDS011;23002;52.676;6.432;2023-05-07T03:14:27;23.27;;;12.27;;
37087;SDS011;23002;52.676;6.432;2023-05-07T03:16:54;24.50;;;12.90;;
37087;SDS011;23002;52.676;6.432;2023-05-07T03:19:22;26.92;;;13.13;;
37087;SDS011;23002;52.676;6.432;2023-05-07T03:21:49;25.33;;;12.90;;
37087;SDS011;23002;52.676;6.432;2023-05-07T03:24:16;22.35;;;12.13;;
37087;SDS011;23002;52.676;6.432;2023-05-07T03:26:43;26.50;;;12.73;;
37087;SDS011;23002;52.676;6.432;2023-05-07T03:29:10;26.00;;;12.68;;
37087;SDS011;23002;52.676;6.432;2023-05-07T03:31:37;25.98;;;12.70;;
37087;SDS011;23002;52.676;6.432;2023-05-07T03:34:04;22.58;;;11.82;;
37087;SDS011;23002;52.676;6.432;2023-05-07T03:36:31;24.98;;;12.40;;
37087;SDS011;23002;52.676;6.432;2023-05-07T03:38:58;25.77;;;13.43;;
37087;SDS011;23002;52.676;6.432;2023-05-07T03:41:26;26.88;;;13.23;;
37087;SDS011;23002;52.676;6.432;2023-05-07T03:43:53;26.10;;;13.40;;
37087;SDS011;23002;52.676;6.432;2023-05-07T03:46:20;28.83;;;12.52;;
37087;SDS011;23002;52.676;6.432;2023-05-07T03:48:47;28.33;;;13.45;;
37087;SDS011;23002;52.676;6.432;2023-05-07T03:51:14;27.85;;;14.32;;
37087;SDS011;23002;52.676;6.432;2023-05-07T03:53:41;29.15;;;14.52;;
37087;SDS011;23002;52.676;6.432;2023-05-07T03:56:09;32.53;;;13.00;;
37087;SDS011;23002;52.676;6.432;2023-05-07T03:58:36;28.17;;;14.15;;
37087;SDS011;23002;52.676;6.432;2023-05-07T04:01:03;29.63;;;14.40;;
37087;SDS011;23002;52.676;6.432;2023-05-07T04:03:30;30.63;;;14.18;;
37087;SDS011;23002;52.676;6.432;2023-05-07T04:05:57;28.75;;;14.70;;
37087;SDS011;23002;52.676;6.432;2023-05-07T04:08:24;32.88;;;15.55;;
37087;SDS011;23002;52.676;6.432;2023-05-07T04:10:55;30.38;;;15.65;;
37087;SDS011;23002;52.676;6.432;2023-05-07T04:13:22;30.33;;;15.32;;
37087;SDS011;23002;52.676;6.432;2023-05-07T04:15:50;28.52;;;15.48;;
37087;SDS011;23002;52.676;6.432;2023-05-07T04:18:17;33.30;;;14.32;;
37087;SDS011;23002;52.676;6.432;2023-05-07T04:20:44;31.38;;;14.70;;
37087;SDS011;23002;52.676;6.432;2023-05-07T04:23:11;30.42;;;15.88;;
37087;SDS011;23002;52.676;6.432;2023-05-07T04:25:38;32.13;;;15.63;;
37087;SDS011;23002;52.676;6.432;2023-05-07T04:28:06;34.67;;;15.77;;
37087;SDS011;23002;52.676;6.432;2023-05-07T04:30:33;32.60;;;16.60;;
37087;SDS011;23002;52.676;6.432;2023-05-07T04:33:00;28.38;;;15.60;;
37087;SDS011;23002;52.676;6.432;2023-05-07T04:35:27;31.05;;;16.33;;
37087;SDS011;23002;52.676;6.432;2023-05-07T04:37:54;30.35;;;15.57;;
37087;SDS011;23002;52.676;6.432;2023-05-07T04:40:21;32.00;;;15.82;;
37087;SDS011;23002;52.676;6.432;2023-05-07T04:42:48;29.67;;;15.30;;
37087;SDS011;23002;52.676;6.432;2023-05-07T04:45:15;31.70;;;16.67;;
37087;SDS011;23002;52.676;6.432;2023-05-07T04:47:42;34.20;;;16.25;;
37087;SDS011;23002;52.676;6.432;2023-05-07T04:50:10;30.10;;;15.25;;
37087;SDS011;23002;52.676;6.432;2023-05-07T04:52:38;32.35;;;16.73;;
37087;SDS011;23002;52.676;6.432;2023-05-07T04:55:05;31.40;;;15.00;;
37087;SDS011;23002;52.676;6.432;2023-05-07T04:57:33;31.90;;;16.48;;
37087;SDS011;23002;52.676;6.432;2023-05-07T05:00:00;28.45;;;15.35;;
37087;SDS011;23002;52.676;6.432;2023-05-07T05:02:27;32.03;;;15.40;;
37087;SDS011;23002;52.676;6.432;2023-05-07T05:04:54;31.80;;;16.55;;
37087;SDS011;23002;52.676;6.432;2023-05-07T05:07:22;30.85;;;15.70;;
37087;SDS011;23002;52.676;6.432;2023-05-07T05:09:49;36.30;;;16.75;;
37087;SDS011;23002;52.676;6.432;2023-05-07T05:12:16;32.58;;;16.77;;
37087;SDS011;23002;52.676;6.432;2023-05-07T05:14:43;30.77;;;15.43;;
37087;SDS011;23002;52.676;6.432;2023-05-07T05:17:10;31.88;;;16.23;;
37087;SDS011;23002;52.676;6.432;2023-05-07T05:19:37;27.15;;;14.82;;
37087;SDS011;23002;52.676;6.432;2023-05-07T05:22:04;30.85;;;15.27;;
37087;SDS011;23002;52.676;6.432;2023-05-07T05:24:31;31.83;;;16.10;;
37087;SDS011;23002;52.676;6.432;2023-05-07T05:26:58;28.20;;;15.05;;
37087;SDS011;23002;52.676;6.432;2023-05-07T05:29:27;31.45;;;15.52;;
37087;SDS011;23002;52.676;6.432;2023-05-07T05:31:54;28.08;;;14.25;;
37087;SDS011;23002;52.676;6.432;2023-05-07T05:34:21;29.73;;;15.10;;
37087;SDS011;23002;52.676;6.432;2023-05-07T05:36:48;29.75;;;15.55;;
37087;SDS011;23002;52.676;6.432;2023-05-07T05:39:15;29.73;;;15.43;;
37087;SDS011;23002;52.676;6.432;2023-05-07T05:41:43;27.13;;;13.25;;
37087;SDS011;23002;52.676;6.432;2023-05-07T05:44:10;28.23;;;15.40;;
37087;SDS011;23002;52.676;6.432;2023-05-07T05:46:37;25.05;;;14.02;;
37087;SDS011;23002;52.676;6.432;2023-05-07T05:49:05;26.10;;;14.65;;
37087;SDS011;23002;52.676;6.432;2023-05-07T05:51:33;24.73;;;14.07;;
37087;SDS011;23002;52.676;6.432;2023-05-07T05:54:00;27.92;;;15.27;;
37087;SDS011;23002;52.676;6.432;2023-05-07T05:56:27;29.38;;;14.25;;
37087;SDS011;23002;52.676;6.432;2023-05-07T05:58:54;28.50;;;12.73;;
37087;SDS011;23002;52.676;6.432;2023-05-07T06:01:21;27.05;;;13.23;;
37087;SDS011;23002;52.676;6.432;2023-05-07T06:03:48;24.65;;;12.93;;
37087;SDS011;23002;52.676;6.432;2023-05-07T06:06:15;28.02;;;14.20;;
37087;SDS011;23002;52.676;6.432;2023-05-07T06:08:42;26.00;;;12.88;;
37087;SDS011;23002;52.676;6.432;2023-05-07T06:11:10;23.73;;;12.50;;
37087;SDS011;23002;52.676;6.432;2023-05-07T06:13:37;26.02;;;13.60;;
37087;SDS011;23002;52.676;6.432;2023-05-07T06:16:04;23.83;;;12.77;;
37087;SDS011;23002;52.676;6.432;2023-05-07T06:18:31;24.58;;;13.35;;
37087;SDS011;23002;52.676;6.432;2023-05-07T06:20:58;20.48;;;12.32;;
37087;SDS011;23002;52.676;6.432;2023-05-07T06:23:25;23.00;;;13.63;;
37087;SDS011;23002;52.676;6.432;2023-05-07T06:25:52;27.27;;;13.60;;
37087;SDS011;23002;52.676;6.432;2023-05-07T06:28:19;28.48;;;13.40;;
37087;SDS011;23002;52.676;6.432;2023-05-07T06:30:47;20.92;;;11.75;;
37087;SDS011;23002;52.676;6.432;2023-05-07T06:33:16;28.65;;;14.05;;
37087;SDS011;23002;52.676;6.432;2023-05-07T06:35:43;22.88;;;12.02;;
37087;SDS011;23002;52.676;6.432;2023-05-07T06:38:10;22.55;;;13.05;;
37087;SDS011;23002;52.676;6.432;2023-05-07T06:40:38;22.17;;;12.77;;
37087;SDS011;23002;52.676;6.432;2023-05-07T06:43:05;21.80;;;11.80;;
37087;SDS011;23002;52.676;6.432;2023-05-07T06:45:32;23.95;;;12.40;;
37087;SDS011;23002;52.676;6.432;2023-05-07T06:47:59;23.08;;;12.88;;
37087;SDS011;23002;52.676;6.432;2023-05-07T06:50:26;24.17;;;12.88;;
37087;SDS011;23002;52.676;6.432;2023-05-07T06:52:53;23.10;;;11.85;;
37087;SDS011;23002;52.676;6.432;2023-05-07T06:55:20;26.33;;;13.05;;
37087;SDS011;23002;52.676;6.432;2023-05-07T06:57:47;22.63;;;11.95;;
37087;SDS011;23002;52.676;6.432;2023-05-07T07:00:15;21.00;;;11.23;;
37087;SDS011;23002;52.676;6.432;2023-05-07T07:02:42;24.52;;;12.10;;
37087;SDS011;23002;52.676;6.432;2023-05-07T07:05:09;22.33;;;12.15;;
37087;SDS011;23002;52.676;6.432;2023-05-07T07:07:36;20.50;;;11.68;;
37087;SDS011;23002;52.676;6.432;2023-05-07T07:10:04;21.58;;;11.95;;
37087;SDS011;23002;52.676;6.432;2023-05-07T07:12:31;21.30;;;11.07;;
37087;SDS011;23002;52.676;6.432;2023-05-07T07:14:58;20.40;;;12.13;;
37087;SDS011;23002;52.676;6.432;2023-05-07T07:17:25;20.50;;;10.95;;
37087;SDS011;23002;52.676;6.432;2023-05-07T07:19:53;22.65;;;12.80;;
37087;SDS011;23002;52.676;6.432;2023-05-07T07:22:20;21.15;;;10.73;;
37087;SDS011;23002;52.676;6.432;2023-05-07T07:24:47;20.23;;;10.07;;
37087;SDS011;23002;52.676;6.432;2023-05-07T07:27:14;17.23;;;9.82;;
37087;SDS011;23002;52.676;6.432;2023-05-07T07:29:41;19.63;;;11.20;;
37087;SDS011;23002;52.676;6.432;2023-05-07T07:32:08;17.52;;;9.40;;
37087;SDS011;23002;52.676;6.432;2023-05-07T07:34:35;18.17;;;10.45;;
37087;SDS011;23002;52.676;6.432;2023-05-07T07:37:02;21.85;;;10.95;;
37087;SDS011;23002;52.676;6.432;2023-05-07T07:39:32;17.75;;;10.60;;
37087;SDS011;23002;52.676;6.432;2023-05-07T07:41:59;18.90;;;10.80;;
37087;SDS011;23002;52.676;6.432;2023-05-07T07:44:27;20.92;;;10.95;;
37087;SDS011;23002;52.676;6.432;2023-05-07T07:46:54;21.55;;;11.80;;
37087;SDS011;23002;52.676;6.432;2023-05-07T07:49:24;19.92;;;11.57;;
37087;SDS011;23002;52.676;6.432;2023-05-07T07:51:51;21.17;;;11.95;;
37087;SDS011;23002;52.676;6.432;2023-05-07T07:54:18;20.50;;;11.30;;
37087;SDS011;23002;52.676;6.432;2023-05-07T07:56:46;17.90;;;10.30;;
37087;SDS011;23002;52.676;6.432;2023-05-07T07:59:13;21.63;;;11.80;;
37087;SDS011;23002;52.676;6.432;2023-05-07T08:01:43;19.35;;;11.65;;
37087;SDS011;23002;52.676;6.432;2023-05-07T08:04:10;23.38;;;11.65;;
37087;SDS011;23002;52.676;6.432;2023-05-07T08:06:38;19.23;;;11.15;;
37087;SDS011;23002;52.676;6.432;2023-05-07T08:09:05;22.50;;;11.43;;
37087;SDS011;23002;52.676;6.432;2023-05-07T08:11:32;21.75;;;12.20;;
37087;SDS011;23002;52.676;6.432;2023-05-07T08:13:59;18.27;;;10.77;;
37087;SDS011;23002;52.676;6.432;2023-05-07T08:16:26;20.88;;;11.18;;
37087;SDS011;23002;52.676;6.432;2023-05-07T08:18:56;19.60;;;11.23;;
37087;SDS011;23002;52.676;6.432;2023-05-07T08:21:23;16.05;;;9.93;;
37087;SDS011;23002;52.676;6.432;2023-05-07T08:23:50;20.60;;;10.57;;
37087;SDS011;23002;52.676;6.432;2023-05-07T08:26:17;19.33;;;10.63;;
37087;SDS011;23002;52.676;6.432;2023-05-07T08:28:44;18.60;;;10.65;;
37087;SDS011;23002;52.676;6.432;2023-05-07T08:31:11;17.55;;;10.32;;
37087;SDS011;23002;52.676;6.432;2023-05-07T08:33:38;18.67;;;10.75;;
37087;SDS011;23002;52.676;6.432;2023-05-07T08:36:06;20.08;;;11.18;;
37087;SDS011;23002;52.676;6.432;2023-05-07T08:38:33;18.40;;;10.57;;
37087;SDS011;23002;52.676;6.432;2023-05-07T08:41:00;19.50;;;11.40;;
37087;SDS011;23002;52.676;6.432;2023-05-07T08:43:27;18.23;;;11.25;;
37087;SDS011;23002;52.676;6.432;2023-05-07T08:45:54;19.15;;;10.98;;
37087;SDS011;23002;52.676;6.432;2023-05-07T08:48:22;18.42;;;10.20;;
37087;SDS011;23002;52.676;6.432;2023-05-07T08:50:52;17.40;;;9.77;;
37087;SDS011;23002;52.676;6.432;2023-05-07T08:53:19;18.27;;;10.05;;
37087;SDS011;23002;52.676;6.432;2023-05-07T08:55:47;15.80;;;10.00;;
37087;SDS011;23002;52.676;6.432;2023-05-07T08:58:14;14.77;;;9.35;;
37087;SDS011;23002;52.676;6.432;2023-05-07T09:00:41;17.45;;;9.70;;
37087;SDS011;23002;52.676;6.432;2023-05-07T09:03:09;16.50;;;9.98;;
37087;SDS011;23002;52.676;6.432;2023-05-07T09:05:39;16.20;;;9.68;;
37087;SDS011;23002;52.676;6.432;2023-05-07T09:08:07;14.80;;;9.55;;
37087;SDS011;23002;52.676;6.432;2023-05-07T09:10:34;19.13;;;10.23;;
37087;SDS011;23002;52.676;6.432;2023-05-07T09:13:02;17.17;;;9.88;;
37087;SDS011;23002;52.676;6.432;2023-05-07T09:15:29;15.93;;;9.52;;
37087;SDS011;23002;52.676;6.432;2023-05-07T09:18:00;20.95;;;11.27;;
37087;SDS011;23002;52.676;6.432;2023-05-07T09:20:29;17.98;;;9.23;;
37087;SDS011;23002;52.676;6.432;2023-05-07T09:22:56;18.42;;;10.63;;
37087;SDS011;23002;52.676;6.432;2023-05-07T09:25:27;20.17;;;10.23;;
37087;SDS011;23002;52.676;6.432;2023-05-07T09:27:55;18.75;;;11.07;;
37087;SDS011;23002;52.676;6.432;2023-05-07T09:30:22;17.73;;;10.75;;
37087;SDS011;23002;52.676;6.432;2023-05-07T09:32:49;19.02;;;10.80;;
37087;SDS011;23002;52.676;6.432;2023-05-07T09:35:16;20.58;;;10.75;;
37087;SDS011;23002;52.676;6.432;2023-05-07T09:37:44;20.63;;;10.98;;
37087;SDS011;23002;52.676;6.432;2023-05-07T09:40:24;16.30;;;10.00;;
37087;SDS011;23002;52.676;6.432;2023-05-07T09:42:52;19.02;;;10.52;;
37087;SDS011;23002;52.676;6.432;2023-05-07T09:45:25;17.00;;;9.73;;
37087;SDS011;23002;52.676;6.432;2023-05-07T09:47:56;17.08;;;10.35;;
37087;SDS011;23002;52.676;6.432;2023-05-07T09:50:27;18.65;;;10.45;;
37087;SDS011;23002;52.676;6.432;2023-05-07T09:52:55;17.08;;;10.65;;
37087;SDS011;23002;52.676;6.432;2023-05-07T09:55:22;18.40;;;10.52;;
37087;SDS011;23002;52.676;6.432;2023-05-07T09:57:50;18.88;;;10.77;;
37087;SDS011;23002;52.676;6.432;2023-05-07T10:00:18;18.17;;;9.57;;
37087;SDS011;23002;52.676;6.432;2023-05-07T10:02:48;16.95;;;9.57;;
37087;SDS011;23002;52.676;6.432;2023-05-07T10:05:17;18.33;;;11.48;;
37087;SDS011;23002;52.676;6.432;2023-05-07T10:07:46;19.50;;;11.52;;
37087;SDS011;23002;52.676;6.432;2023-05-07T10:10:14;17.88;;;10.80;;
37087;SDS011;23002;52.676;6.432;2023-05-07T10:12:44;21.48;;;11.38;;
37087;SDS011;23002;52.676;6.432;2023-05-07T10:15:12;21.80;;;11.02;;
37087;SDS011;23002;52.676;6.432;2023-05-07T10:17:40;18.88;;;10.88;;
37087;SDS011;23002;52.676;6.432;2023-05-07T10:20:08;17.13;;;10.15;;
37087;SDS011;23002;52.676;6.432;2023-05-07T10:22:43;16.33;;;9.52;;
37087;SDS011;23002;52.676;6.432;2023-05-07T10:25:18;17.13;;;11.05;;
37087;SDS011;23002;52.676;6.432;2023-05-07T10:27:45;17.20;;;9.98;;
37087;SDS011;23002;52.676;6.432;2023-05-07T10:30:26;15.10;;;9.43;;
37087;SDS011;23002;52.676;6.432;2023-05-07T10:32:59;19.55;;;10.70;;
37087;SDS011;23002;52.676;6.432;2023-05-07T10:35:36;16.70;;;9.48;;
37087;SDS011;23002;52.676;6.432;2023-05-07T10:38:04;16.77;;;9.80;;
37087;SDS011;23002;52.676;6.432;2023-05-07T10:40:31;14.20;;;9.18;;
37087;SDS011;23002;52.676;6.432;2023-05-07T10:42:59;14.98;;;9.75;;
37087;SDS011;23002;52.676;6.432;2023-05-07T10:45:27;16.48;;;9.38;;
37087;SDS011;23002;52.676;6.432;2023-05-07T10:48:13;16.10;;;9.43;;
37087;SDS011;23002;52.676;6.432;2023-05-07T10:50:44;17.80;;;9.52;;
37087;SDS011;23002;52.676;6.432;2023-05-07T10:55:42;15.23;;;9.35;;
37087;SDS011;23002;52.676;6.432;2023-05-07T11:03:25;13.85;;;8.52;;
37087;SDS011;23002;52.676;6.432;2023-05-07T11:06:12;14.20;;;8.98;;
37087;SDS011;23002;52.676;6.432;2023-05-07T11:11:18;15.35;;;9.70;;
37087;SDS011;23002;52.676;6.432;2023-05-07T11:13:47;16.00;;;9.48;;
37087;SDS011;23002;52.676;6.432;2023-05-07T11:16:17;19.52;;;9.48;;
37087;SDS011;23002;52.676;6.432;2023-05-07T11:18:48;15.43;;;9.13;;
37087;SDS011;23002;52.676;6.432;2023-05-07T11:24:08;17.65;;;9.48;;
37087;SDS011;23002;52.676;6.432;2023-05-07T11:26:43;13.25;;;8.73;;
37087;SDS011;23002;52.676;6.432;2023-05-07T11:29:14;14.45;;;8.68;;
37087;SDS011;23002;52.676;6.432;2023-05-07T11:31:48;13.95;;;8.43;;
37087;SDS011;23002;52.676;6.432;2023-05-07T11:34:15;15.48;;;9.25;;
37087;SDS011;23002;52.676;6.432;2023-05-07T11:36:47;14.98;;;9.18;;
37087;SDS011;23002;52.676;6.432;2023-05-07T11:39:24;16.75;;;9.23;;
37087;SDS011;23002;52.676;6.432;2023-05-07T11:41:51;17.17;;;8.93;;
37087;SDS011;23002;52.676;6.432;2023-05-07T11:44:18;13.52;;;8.48;;
37087;SDS011;23002;52.676;6.432;2023-05-07T11:46:46;13.55;;;8.25;;
37087;SDS011;23002;52.676;6.432;2023-05-07T11:49:13;13.05;;;8.30;;
37087;SDS011;23002;52.676;6.432;2023-05-07T11:51:40;16.40;;;8.90;;
37087;SDS011;23002;52.676;6.432;2023-05-07T11:54:08;16.73;;;9.13;;
37087;SDS011;23002;52.676;6.432;2023-05-07T11:56:37;14.80;;;8.80;;
37087;SDS011;23002;52.676;6.432;2023-05-07T11:59:05;14.77;;;9.13;;
37087;SDS011;23002;52.676;6.432;2023-05-07T12:01:34;15.93;;;9.10;;
37087;SDS011;23002;52.676;6.432;2023-05-07T12:04:02;15.75;;;9.77;;
37087;SDS011;23002;52.676;6.432;2023-05-07T12:06:35;13.73;;;9.18;;
37087;SDS011;23002;52.676;6.432;2023-05-07T12:09:02;13.68;;;8.50;;
37087;SDS011;23002;52.676;6.432;2023-05-07T12:11:30;15.60;;;9.45;;
37087;SDS011;23002;52.676;6.432;2023-05-07T12:13:57;13.45;;;8.15;;
37087;SDS011;23002;52.676;6.432;2023-05-07T12:16:25;16.23;;;9.48;;
37087;SDS011;23002;52.676;6.432;2023-05-07T12:18:53;18.45;;;9.57;;
37087;SDS011;23002;52.676;6.432;2023-05-07T12:21:21;14.30;;;8.75;;
37087;SDS011;23002;52.676;6.432;2023-05-07T12:23:48;16.83;;;9.45;;
37087;SDS011;23002;52.676;6.432;2023-05-07T12:26:16;16.48;;;9.15;;
37087;SDS011;23002;52.676;6.432;2023-05-07T12:28:43;13.77;;;8.52;;
37087;SDS011;23002;52.676;6.432;2023-05-07T12:31:10;14.40;;;8.55;;
37087;SDS011;23002;52.676;6.432;2023-05-07T12:33:37;14.38;;;8.43;;
37087;SDS011;23002;52.676;6.432;2023-05-07T12:36:05;16.00;;;9.10;;
37087;SDS011;23002;52.676;6.432;2023-05-07T12:38:34;14.15;;;8.95;;
37087;SDS011;23002;52.676;6.432;2023-05-07T12:41:02;15.13;;;9.13;;
37087;SDS011;23002;52.676;6.432;2023-05-07T12:43:30;13.23;;;8.55;;
37087;SDS011;23002;52.676;6.432;2023-05-07T12:45:57;16.10;;;8.65;;
37087;SDS011;23002;52.676;6.432;2023-05-07T12:48:27;16.30;;;8.18;;
37087;SDS011;23002;52.676;6.432;2023-05-07T12:50:55;15.68;;;8.55;;
37087;SDS011;23002;52.676;6.432;2023-05-07T12:53:23;18.02;;;8.80;;
37087;SDS011;23002;52.676;6.432;2023-05-07T12:55:51;12.82;;;7.47;;
37087;SDS011;23002;52.676;6.432;2023-05-07T12:58:20;15.07;;;8.85;;
37087;SDS011;23002;52.676;6.432;2023-05-07T13:00:48;15.05;;;8.93;;
37087;SDS011;23002;52.676;6.432;2023-05-07T13:03:22;14.73;;;9.10;;
37087;SDS011;23002;52.676;6.432;2023-05-07T13:05:51;36.42;;;9.63;;
37087;SDS011;23002;52.676;6.432;2023-05-07T13:08:24;14.98;;;9.10;;
37087;SDS011;23002;52.676;6.432;2023-05-07T13:10:52;14.02;;;8.40;;
37087;SDS011;23002;52.676;6.432;2023-05-07T13:13:22;14.52;;;8.57;;
37087;SDS011;23002;52.676;6.432;2023-05-07T13:15:49;16.30;;;8.80;;
37087;SDS011;23002;52.676;6.432;2023-05-07T13:18:16;16.42;;;8.73;;
37087;SDS011;23002;52.676;6.432;2023-05-07T13:20:44;14.23;;;8.50;;
37087;SDS011;23002;52.676;6.432;2023-05-07T13:23:11;16.88;;;9.57;;
37087;SDS011;23002;52.676;6.432;2023-05-07T13:25:38;18.52;;;9.77;;
37087;SDS011;23002;52.676;6.432;2023-05-07T13:28:05;16.00;;;9.95;;
37087;SDS011;23002;52.676;6.432;2023-05-07T13:30:36;17.45;;;10.60;;
37087;SDS011;23002;52.676;6.432;2023-05-07T13:33:03;15.48;;;9.48;;
37087;SDS011;23002;52.676;6.432;2023-05-07T13:35:31;18.17;;;9.52;;
37087;SDS011;23002;52.676;6.432;2023-05-07T13:37:58;22.23;;;11.13;;
37087;SDS011;23002;52.676;6.432;2023-05-07T13:40:25;15.70;;;9.32;;
37087;SDS011;23002;52.676;6.432;2023-05-07T13:42:53;17.95;;;10.18;;
37087;SDS011;23002;52.676;6.432;2023-05-07T13:45:20;17.77;;;10.43;;
37087;SDS011;23002;52.676;6.432;2023-05-07T13:47:47;19.50;;;10.70;;
37087;SDS011;23002;52.676;6.432;2023-05-07T13:50:15;16.08;;;10.15;;
37087;SDS011;23002;52.676;6.432;2023-05-07T13:52:43;17.08;;;9.90;;
37087;SDS011;23002;52.676;6.432;2023-05-07T13:55:17;17.77;;;9.98;;
37087;SDS011;23002;52.676;6.432;2023-05-07T13:57:44;16.67;;;9.77;;
37087;SDS011;23002;52.676;6.432;2023-05-07T14:00:12;17.15;;;9.88;;
37087;SDS011;23002;52.676;6.432;2023-05-07T14:02:41;15.13;;;9.30;;
37087;SDS011;23002;52.676;6.432;2023-05-07T14:05:08;15.00;;;9.02;;
37087;SDS011;23002;52.676;6.432;2023-05-07T14:07:36;15.80;;;9.38;;
37087;SDS011;23002;52.676;6.432;2023-05-07T14:10:03;13.55;;;9.23;;
37087;SDS011;23002;52.676;6.432;2023-05-07T14:12:31;14.77;;;9.00;;
37087;SDS011;23002;52.676;6.432;2023-05-07T14:14:58;14.57;;;9.02;;
37087;SDS011;23002;52.676;6.432;2023-05-07T14:17:28;14.90;;;8.65;;
37087;SDS011;23002;52.676;6.432;2023-05-07T14:19:55;13.55;;;8.45;;
37087;SDS011;23002;52.676;6.432;2023-05-07T14:22:22;15.05;;;8.45;;
37087;SDS011;23002;52.676;6.432;2023-05-07T14:24:50;14.55;;;8.57;;
37087;SDS011;23002;52.676;6.432;2023-05-07T14:27:37;16.30;;;8.82;;
37087;SDS011;23002;52.676;6.432;2023-05-07T14:30:05;13.32;;;8.23;;
37087;SDS011;23002;52.676;6.432;2023-05-07T14:32:32;14.18;;;8.70;;
37087;SDS011;23002;52.676;6.432;2023-05-07T14:35:01;17.23;;;9.27;;
37087;SDS011;23002;52.676;6.432;2023-05-07T14:37:28;15.80;;;8.45;;
37087;SDS011;23002;52.676;6.432;2023-05-07T14:39:56;18.15;;;9.45;;
37087;SDS011;23002;52.676;6.432;2023-05-07T14:42:23;14.98;;;8.60;;
37087;SDS011;23002;52.676;6.432;2023-05-07T14:44:50;15.35;;;9.00;;